createdAt,value
2019-04-20T00:01:50.524Z,82.40
2019-04-20T00:04:24.731Z,81.10
2019-04-20T00:06:53.086Z,82.50
2019-04-20T00:09:25.727Z,80.70
2019-04-20T00:12:01.506Z,79.60
2019-04-20T00:14:26.272Z,81.00
2019-04-20T00:16:52.912Z,80.20
2019-04-20T00:19:33.658Z,81.20
2019-04-20T00:22:05.857Z,80.20
2019-04-20T00:24:51.596Z,80.40
2019-04-20T00:27:40.253Z,79.90
2019-04-20T00:30:04.375Z,76.00
2019-04-20T00:32:35.979Z,74.30
2019-04-20T00:34:50.365Z,72.60
2019-04-20T00:37:19.430Z,75.70
2019-04-20T00:39:48.865Z,75.50
2019-04-20T00:42:19.643Z,76.60
2019-04-20T00:44:56.411Z,75.90
2019-04-20T00:47:30.439Z,77.70
2019-04-20T00:50:04.051Z,77.20
2019-04-20T00:52:35.680Z,78.90
2019-04-20T00:54:51.496Z,77.80
2019-04-20T00:57:30.524Z,78.70
2019-04-20T01:00:11.067Z,78.50
2019-04-20T01:02:37.038Z,78.60
2019-04-20T01:05:12.809Z,80.20
2019-04-20T01:07:33.061Z,78.10
2019-04-20T01:10:09.253Z,79.90
2019-04-20T01:12:40.264Z,80.20
2019-04-20T01:15:12.371Z,80.00
2019-04-20T01:17:41.518Z,80.70
2019-04-20T01:20:10.393Z,80.40
2019-04-20T01:22:44.562Z,79.80
2019-04-20T01:25:17.250Z,77.10
2019-04-20T01:28:02.148Z,77.10
2019-04-20T01:30:20.764Z,78.10
2019-04-20T01:32:57.534Z,77.20
2019-04-20T01:35:30.447Z,79.40
2019-04-20T01:38:02.621Z,79.40
2019-04-20T01:40:14.742Z,79.00
2019-04-20T01:42:44.585Z,80.70
2019-04-20T01:45:19.888Z,80.00
2019-04-20T01:47:50.270Z,79.50
2019-04-20T01:50:21.009Z,81.00
2019-04-20T01:52:56.705Z,80.20
2019-04-20T01:55:39.085Z,80.80
2019-04-20T01:58:19.444Z,79.20
2019-04-20T02:00:45.985Z,81.10
2019-04-20T02:03:38.366Z,80.50
2019-04-20T02:06:12.697Z,79.70
2019-04-20T02:08:46.042Z,79.00
2019-04-20T02:11:23.075Z,80.80
2019-04-20T02:13:51.615Z,80.10
2019-04-20T02:16:27.281Z,80.30
2019-04-20T02:19:09.103Z,80.00
2019-04-20T02:21:36.384Z,81.50
2019-04-20T02:23:58.887Z,82.60
2019-04-20T02:26:23.956Z,81.80
2019-04-20T02:29:17.593Z,81.10
2019-04-20T02:32:05.034Z,82.70
2019-04-20T02:34:40.175Z,82.20
2019-04-20T02:37:21.296Z,81.70
2019-04-20T02:39:46.369Z,82.00
2019-04-20T02:47:14.031Z,82.00
2019-04-20T02:49:42.058Z,83.10
2019-04-20T02:52:12.401Z,82.60
2019-04-20T02:54:47.049Z,83.20
2019-04-20T02:57:33.344Z,82.60
2019-04-20T03:01:59.410Z,81.80
2019-04-20T03:04:25.680Z,82.60
2019-04-20T03:07:02.611Z,83.10
2019-04-20T03:09:38.539Z,83.00
2019-04-20T03:12:10.610Z,82.70
2019-04-20T03:14:33.626Z,82.90
2019-04-20T03:17:10.409Z,83.20
2019-04-20T03:19:32.826Z,83.20
2019-04-20T03:22:18.876Z,84.30
2019-04-20T03:24:46.878Z,83.10
2019-04-20T03:27:07.563Z,84.30
2019-04-20T03:29:52.557Z,84.10
2019-04-20T03:35:05.311Z,85.00
2019-04-20T03:37:34.569Z,84.80
2019-04-20T03:39:55.563Z,84.20
2019-04-20T03:42:09.331Z,85.20
2019-04-20T03:44:39.420Z,85.50
2019-04-20T03:47:12.342Z,85.10
2019-04-20T03:52:49.350Z,84.90
2019-04-20T03:55:26.242Z,85.40
2019-04-20T03:58:04.453Z,85.90
2019-04-20T04:00:35.511Z,86.90
2019-04-20T04:03:20.246Z,86.60
2019-04-20T04:05:45.860Z,87.60
2019-04-20T04:08:10.568Z,86.70
2019-04-20T04:10:47.879Z,87.60
2019-04-20T04:13:21.000Z,87.40
2019-04-20T04:15:57.553Z,88.70
2019-04-20T04:18:29.738Z,86.20
2019-04-20T04:21:03.139Z,85.40
2019-04-20T04:23:47.094Z,86.90
2019-04-20T04:26:17.145Z,85.90
2019-04-20T04:28:44.864Z,85.30
2019-04-20T04:31:17.640Z,86.70
2019-04-20T04:33:55.955Z,86.90
2019-04-20T04:36:15.316Z,87.90
2019-04-20T04:38:57.094Z,87.80
2019-04-20T04:41:25.592Z,86.70
2019-04-20T04:43:52.120Z,85.60
2019-04-20T04:46:02.065Z,87.50
2019-04-20T04:48:35.826Z,87.60
2019-04-20T04:51:11.331Z,88.00
2019-04-20T04:53:44.357Z,87.50
2019-04-20T04:56:07.384Z,87.80
2019-04-20T04:58:34.031Z,88.00
2019-04-20T05:01:11.738Z,88.80
2019-04-20T05:03:56.520Z,87.60
2019-04-20T05:06:31.724Z,87.80
2019-04-20T05:08:55.118Z,88.00
2019-04-20T05:11:23.838Z,87.20
2019-04-20T05:14:02.198Z,88.00
2019-04-20T05:16:48.121Z,87.30
2019-04-20T05:19:19.256Z,87.90
2019-04-20T05:22:08.126Z,88.50
2019-04-20T05:24:34.897Z,88.90
2019-04-20T05:27:24.681Z,87.90
2019-04-20T05:29:41.360Z,87.30
2019-04-20T05:32:19.915Z,88.70
2019-04-20T05:35:10.934Z,87.90
2019-04-20T05:37:45.776Z,88.70
2019-04-20T05:40:13.275Z,88.90
2019-04-20T05:42:41.111Z,88.90
2019-04-20T05:45:08.624Z,89.10
2019-04-20T05:47:38.726Z,88.70
2019-04-20T05:50:01.022Z,88.10
2019-04-20T05:55:20.767Z,90.10
2019-04-20T05:58:02.074Z,87.80
2019-04-20T06:00:34.571Z,86.60
2019-04-20T06:03:02.331Z,88.00
2019-04-20T06:05:36.432Z,88.00
2019-04-20T06:07:59.173Z,87.70
2019-04-20T06:10:31.963Z,87.70
2019-04-20T06:13:00.258Z,85.30
2019-04-20T06:15:42.069Z,85.10
2019-04-20T06:18:17.802Z,85.20
2019-04-20T06:21:00.823Z,86.30
2019-04-20T06:23:33.825Z,85.70
2019-04-20T06:26:12.823Z,85.70
2019-04-20T06:28:28.033Z,86.30
2019-04-20T06:32:33.846Z,85.50
2019-04-20T06:34:25.897Z,85.60
2019-04-20T06:36:57.279Z,86.20
2019-04-20T06:39:20.390Z,85.50
2019-04-20T06:42:07.186Z,83.90
2019-04-20T06:44:26.722Z,84.60
2019-04-20T06:46:53.234Z,83.40
2019-04-20T06:49:27.485Z,83.00
2019-04-20T06:51:55.013Z,82.20
2019-04-20T06:54:36.734Z,77.60
2019-04-20T06:57:12.442Z,76.50
2019-04-20T07:00:14.044Z,74.90
2019-04-20T07:02:17.219Z,69.90
2019-04-20T07:04:55.468Z,69.70
2019-04-20T07:07:14.385Z,68.70
2019-04-20T07:09:58.328Z,68.50
2019-04-20T07:12:12.317Z,66.50
2019-04-20T07:14:37.975Z,68.30
2019-04-20T07:20:08.354Z,65.70
2019-04-20T07:22:37.564Z,66.60
2019-04-20T07:25:11.662Z,67.30
2019-04-20T07:27:43.173Z,67.10
2019-04-20T07:30:12.392Z,67.70
2019-04-20T07:33:02.435Z,66.80
2019-04-20T07:35:19.631Z,67.40
2019-04-20T07:38:10.324Z,66.00
2019-04-20T07:40:20.387Z,65.30
2019-04-20T07:42:56.516Z,64.80
2019-04-20T07:45:30.781Z,64.70
2019-04-20T07:48:09.312Z,65.30
2019-04-20T07:50:24.080Z,65.30
2019-04-20T07:52:51.638Z,64.30
2019-04-20T07:55:40.865Z,65.10
2019-04-20T07:57:53.818Z,65.50
2019-04-20T08:00:46.676Z,65.00
2019-04-20T08:03:28.118Z,64.90
2019-04-20T08:05:52.703Z,61.60
2019-04-20T08:08:30.742Z,60.10
2019-04-20T08:11:02.658Z,61.70
2019-04-20T08:13:39.165Z,62.20
2019-04-20T08:18:49.964Z,61.60
2019-04-20T08:21:06.449Z,62.20
2019-04-20T08:23:33.714Z,60.30
2019-04-20T08:26:09.035Z,59.80
2019-04-20T08:28:36.289Z,58.60
2019-04-20T08:31:39.017Z,56.60
2019-04-20T08:34:18.566Z,56.70
2019-04-20T08:36:47.797Z,56.70
2019-04-20T08:39:29.976Z,56.00
2019-04-20T08:41:53.488Z,55.40
2019-04-20T08:44:42.897Z,56.60
2019-04-20T08:47:01.265Z,56.50
2019-04-20T08:49:26.311Z,57.00
2019-04-20T08:51:58.860Z,56.50
2019-04-20T08:54:16.982Z,55.20
2019-04-20T08:56:39.001Z,53.80
2019-04-20T08:59:01.847Z,54.80
2019-04-20T09:01:34.155Z,54.20
2019-04-20T09:04:24.120Z,52.40
2019-04-20T09:06:49.078Z,53.30
2019-04-20T09:09:44.585Z,52.90
2019-04-20T09:12:06.439Z,52.90
2019-04-20T09:14:20.880Z,53.80
2019-04-20T09:16:59.168Z,53.60
2019-04-20T09:19:29.944Z,52.00
2019-04-20T09:22:06.389Z,49.80
2019-04-20T09:24:44.640Z,51.80
2019-04-20T09:27:08.886Z,50.70
2019-04-20T09:29:37.172Z,49.70
2019-04-20T09:32:23.208Z,49.60
2019-04-20T09:35:00.028Z,51.30
2019-04-20T09:37:41.267Z,50.50
2019-04-20T09:40:21.191Z,52.00
2019-04-20T09:42:38.826Z,48.70
2019-04-20T09:45:19.840Z,49.20
2019-04-20T09:47:44.978Z,50.60
2019-04-20T09:50:27.874Z,50.40
2019-04-20T09:52:59.270Z,49.60
2019-04-20T09:55:24.677Z,49.70
2019-04-20T09:57:59.057Z,49.90
2019-04-20T10:00:29.099Z,49.40
2019-04-20T10:02:44.780Z,50.50
2019-04-20T10:05:13.672Z,47.70
2019-04-20T10:07:43.864Z,46.20
2019-04-20T10:10:21.418Z,47.10
2019-04-20T10:12:43.926Z,47.60
2019-04-20T10:15:19.016Z,48.00
2019-04-20T10:17:44.124Z,48.00
2019-04-20T10:20:20.859Z,51.50
2019-04-20T10:22:44.714Z,49.90
2019-04-20T10:25:14.972Z,48.00
2019-04-20T10:27:45.349Z,49.00
2019-04-20T10:30:14.887Z,49.70
2019-04-20T10:32:47.181Z,50.10
2019-04-20T10:35:16.868Z,48.90
2019-04-20T10:37:53.621Z,48.00
2019-04-20T10:40:37.764Z,47.60
2019-04-20T10:42:53.193Z,49.50
2019-04-20T10:45:22.959Z,50.70
2019-04-20T10:47:52.817Z,50.70
2019-04-20T10:50:25.073Z,50.50
2019-04-20T10:52:54.171Z,47.50
2019-04-20T10:55:27.150Z,47.80
2019-04-20T10:57:57.652Z,49.50
2019-04-20T11:00:42.256Z,49.70
2019-04-20T11:03:13.438Z,49.70
2019-04-20T11:05:42.852Z,48.60
2019-04-20T11:08:12.808Z,49.10
2019-04-20T11:10:56.826Z,48.60
2019-04-20T11:13:13.371Z,45.70
2019-04-20T11:15:42.323Z,45.80
2019-04-20T11:18:11.390Z,45.20
2019-04-20T11:20:41.498Z,44.40
2019-04-20T11:23:20.363Z,44.70
2019-04-20T11:25:50.505Z,43.80
2019-04-20T11:28:40.027Z,44.90
2019-04-20T11:31:21.993Z,44.30
2019-04-20T11:33:54.199Z,43.20
2019-04-20T11:36:23.377Z,43.10
2019-04-20T11:38:54.465Z,40.80
2019-04-20T11:42:09.846Z,40.50
2019-04-20T11:44:39.466Z,41.00
2019-04-20T11:47:08.576Z,38.10
2019-04-20T11:49:37.633Z,39.20
2019-04-20T11:52:07.761Z,38.10
2019-04-20T11:54:37.009Z,39.50
2019-04-20T11:57:07.076Z,37.30
2019-04-20T11:59:37.133Z,36.50
2019-04-20T12:02:10.819Z,37.70
2019-04-20T12:04:49.960Z,36.30
2019-04-20T12:07:15.014Z,36.80
2019-04-20T12:09:47.216Z,37.50
2019-04-20T12:12:27.539Z,37.10
2019-04-20T12:14:48.390Z,36.70
2019-04-20T12:17:17.710Z,36.40
2019-04-20T12:19:52.970Z,34.50
2019-04-20T12:22:24.059Z,33.60
2019-04-20T12:24:54.097Z,35.80
2019-04-20T12:27:25.046Z,34.00
2019-04-20T12:29:54.099Z,33.20
2019-04-20T12:32:28.245Z,31.30
2019-04-20T12:34:54.519Z,32.00
2019-04-20T12:37:24.984Z,32.70
2019-04-20T12:39:55.333Z,30.60
2019-04-20T12:42:25.311Z,31.80
2019-04-20T12:44:55.643Z,33.20
2019-04-20T12:47:25.916Z,32.90
2019-04-20T12:49:56.301Z,33.10
2019-04-20T12:52:26.275Z,35.00
2019-04-20T12:54:58.317Z,35.50
2019-04-20T12:57:26.827Z,35.80
2019-04-20T12:59:57.185Z,34.40
2019-04-20T13:02:27.263Z,34.50
2019-04-20T13:04:57.454Z,34.90
2019-04-20T13:07:27.226Z,35.30
2019-04-20T13:09:56.909Z,34.80
2019-04-20T13:12:30.295Z,34.80
2019-04-20T13:15:30.281Z,35.60
2019-04-20T13:18:01.217Z,33.40
2019-04-20T13:20:30.464Z,35.20
2019-04-20T13:23:00.933Z,35.30
2019-04-20T13:25:30.838Z,35.80
2019-04-20T13:28:01.052Z,35.90
2019-04-20T13:30:30.282Z,34.40
2019-04-20T13:32:59.465Z,34.80
2019-04-20T13:35:28.381Z,34.20
2019-04-20T13:37:58.193Z,35.20
2019-04-20T13:40:27.990Z,35.80
2019-04-20T13:42:57.144Z,34.80
2019-04-20T13:45:26.689Z,35.10
2019-04-20T13:47:57.080Z,35.20
2019-04-20T13:50:26.360Z,35.80
2019-04-20T13:52:56.506Z,34.00
2019-04-20T13:55:27.285Z,35.10
2019-04-20T13:57:58.009Z,34.30
2019-04-20T14:00:50.954Z,34.60
2019-04-20T14:03:22.776Z,33.20
2019-04-20T14:05:52.968Z,33.60
2019-04-20T14:08:25.299Z,34.30
2019-04-20T14:10:55.650Z,33.90
2019-04-20T14:13:29.303Z,34.30
2019-04-20T14:15:55.503Z,33.30
2019-04-20T14:18:25.049Z,32.50
2019-04-20T14:20:54.316Z,32.70
2019-04-20T14:23:23.334Z,34.20
2019-04-20T14:25:52.358Z,34.80
2019-04-20T14:28:21.353Z,34.50
2019-04-20T14:30:50.342Z,34.50
2019-04-20T14:33:19.349Z,33.90
2019-04-20T14:35:48.477Z,35.80
2019-04-20T14:38:17.676Z,35.40
2019-04-20T14:40:48.290Z,35.80
2019-04-20T14:43:17.500Z,35.00
2019-04-20T14:45:47.147Z,34.30
2019-04-20T14:48:16.386Z,34.10
2019-04-20T14:50:45.764Z,34.70
2019-04-20T14:53:15.717Z,35.10
2019-04-20T14:55:44.893Z,35.40
2019-04-20T14:58:33.335Z,35.10
2019-04-20T15:01:08.864Z,34.40
2019-04-20T15:03:40.412Z,36.40
2019-04-20T15:06:11.811Z,36.50
2019-04-20T15:08:54.729Z,38.70
2019-04-20T15:11:28.283Z,36.00
2019-04-20T15:16:54.133Z,35.90
2019-04-20T15:19:47.622Z,36.20
2019-04-20T15:22:35.943Z,35.90
2019-04-20T15:25:07.628Z,36.40
2019-04-20T15:27:37.369Z,36.30
2019-04-20T15:30:08.624Z,37.00
2019-04-20T15:32:39.040Z,37.30
2019-04-20T15:35:09.026Z,37.10
2019-04-20T15:37:39.384Z,36.80
2019-04-20T15:40:08.955Z,36.10
2019-04-20T15:42:49.602Z,35.70
2019-04-20T15:45:09.404Z,37.30
2019-04-20T15:47:40.285Z,38.00
2019-04-20T15:50:09.737Z,38.60
2019-04-20T15:52:43.222Z,37.80
2019-04-20T15:55:19.659Z,37.30
2019-04-20T15:57:40.696Z,37.30
2019-04-20T16:00:10.904Z,37.40
2019-04-20T16:02:43.221Z,38.10
2019-04-20T16:05:14.447Z,38.10
2019-04-20T16:07:48.557Z,38.60
2019-04-20T16:10:14.994Z,39.20
2019-04-20T16:12:44.910Z,38.60
2019-04-20T16:15:14.146Z,38.20
2019-04-20T16:17:47.121Z,38.90
2019-04-20T16:20:19.725Z,38.60
2019-04-20T16:22:44.905Z,39.10
2019-04-20T16:25:15.461Z,39.40
2019-04-20T16:27:50.078Z,40.70
2019-04-20T16:30:18.155Z,38.90
2019-04-20T16:32:48.167Z,39.80
2019-04-20T16:35:18.250Z,39.20
2019-04-20T16:37:48.515Z,39.90
2019-04-20T16:40:17.814Z,39.50
2019-04-20T16:42:47.973Z,39.40
2019-04-20T16:45:17.237Z,39.50
2019-04-20T16:47:58.875Z,38.40
2019-04-20T16:50:22.707Z,39.90
2019-04-20T16:52:52.702Z,40.40
2019-04-20T16:55:22.930Z,40.70
2019-04-20T16:57:53.013Z,41.30
2019-04-20T17:00:23.216Z,40.50
2019-04-20T17:02:54.330Z,40.80
2019-04-20T17:05:25.112Z,40.60
2019-04-20T17:07:57.262Z,40.60
2019-04-20T17:10:26.602Z,39.90
2019-04-20T17:12:55.777Z,40.10
2019-04-20T17:15:25.563Z,40.10
2019-04-20T17:17:56.711Z,40.30
2019-04-20T17:20:27.030Z,40.70
2019-04-20T17:22:56.331Z,40.50
2019-04-20T17:25:26.156Z,40.80
2019-04-20T17:28:06.875Z,41.20
2019-04-20T17:30:47.851Z,41.80
2019-04-20T17:33:47.399Z,42.00
2019-04-20T17:36:14.462Z,41.90
2019-04-20T17:38:41.777Z,41.50
2019-04-20T17:41:29.100Z,41.00
2019-04-20T17:43:57.790Z,40.90
2019-04-20T17:46:17.554Z,40.90
2019-04-20T17:48:51.377Z,41.60
2019-04-20T17:51:37.169Z,41.10
2019-04-20T17:53:53.785Z,41.40
2019-04-20T17:56:18.214Z,40.80
2019-04-20T17:58:50.708Z,40.30
2019-04-20T18:01:55.775Z,41.50
2019-04-20T18:04:51.405Z,40.50
2019-04-20T18:06:57.919Z,40.70
2019-04-20T18:09:39.929Z,41.40
2019-04-20T18:11:52.590Z,40.90
2019-04-20T18:14:31.553Z,41.00
2019-04-20T18:17:10.446Z,41.00
2019-04-20T18:19:29.118Z,41.00
2019-04-20T18:21:58.015Z,41.50
2019-04-20T18:24:50.994Z,42.10
2019-04-20T18:27:14.168Z,41.50
2019-04-20T18:29:49.133Z,41.20
2019-04-20T18:32:19.759Z,41.90
2019-04-20T18:34:54.301Z,42.40
2019-04-20T18:37:23.383Z,43.10
2019-04-20T18:39:57.393Z,43.10
2019-04-20T18:42:29.156Z,42.90
2019-04-20T18:45:12.424Z,43.60
2019-04-20T18:47:45.286Z,43.00
2019-04-20T18:50:07.700Z,44.00
2019-04-20T18:52:27.415Z,44.90
2019-04-20T18:54:57.576Z,45.60
2019-04-20T18:57:30.720Z,45.60
2019-04-20T18:59:59.144Z,45.60
2019-04-20T19:02:33.580Z,45.50
2019-04-20T19:05:01.558Z,46.40
2019-04-20T19:07:34.870Z,46.30
2019-04-20T19:10:12.923Z,46.10
2019-04-20T19:12:41.481Z,46.90
2019-04-20T19:15:35.044Z,47.20
2019-04-20T19:17:52.304Z,47.80
2019-04-20T19:20:26.850Z,47.50
2019-04-20T19:22:55.793Z,48.10
2019-04-20T19:25:29.840Z,47.50
2019-04-20T19:27:57.552Z,48.20
2019-04-20T19:30:35.350Z,47.70
2019-04-20T19:33:14.588Z,48.40
2019-04-20T19:35:40.591Z,49.20
2019-04-20T19:38:10.514Z,50.20
2019-04-20T19:40:45.387Z,49.90
2019-04-20T19:43:15.628Z,50.90
2019-04-20T19:45:56.607Z,49.10
2019-04-20T19:48:23.039Z,50.40
2019-04-20T19:50:59.337Z,49.30
2019-04-20T19:53:45.541Z,49.30
2019-04-20T19:55:52.721Z,46.70
2019-04-20T19:58:45.630Z,50.00
2019-04-20T20:01:03.592Z,50.00
2019-04-20T20:03:35.447Z,47.50
2019-04-20T20:06:25.794Z,48.10
2019-04-20T20:08:55.798Z,49.30
2019-04-20T20:11:32.322Z,50.80
2019-04-20T20:13:59.183Z,50.40
2019-04-20T20:16:51.775Z,51.50
2019-04-20T20:19:08.507Z,51.20
2019-04-20T20:27:28.855Z,49.80
2019-04-20T20:30:10.249Z,50.00
2019-04-20T20:32:58.183Z,51.10
2019-04-20T20:35:18.711Z,52.20
2019-04-20T20:37:48.018Z,52.30
2019-04-20T20:40:24.793Z,53.80
2019-04-20T20:48:54.315Z,50.80
2019-04-20T20:51:44.250Z,49.90
2019-04-20T20:54:04.515Z,47.90
2019-04-20T20:56:30.938Z,45.40
2019-04-20T20:59:04.128Z,45.30
2019-04-20T21:01:39.211Z,44.10
2019-04-20T21:04:17.929Z,43.60
2019-04-20T21:06:51.025Z,43.60
2019-04-20T21:09:25.444Z,43.90
2019-04-20T21:12:00.605Z,45.60
2019-04-20T21:14:33.521Z,45.30
2019-04-20T21:17:02.954Z,45.70
2019-04-20T21:20:02.868Z,44.90
2019-04-20T21:25:40.776Z,44.50
2019-04-20T21:27:38.981Z,44.20
2019-04-20T21:28:04.837Z,44.40
2019-04-20T21:30:43.682Z,46.10
2019-04-20T21:33:33.914Z,47.70
2019-04-20T21:36:01.308Z,47.90
2019-04-20T21:38:35.838Z,49.50
2019-04-20T21:41:06.468Z,50.20
2019-04-20T21:44:29.422Z,50.30
2019-04-20T21:47:42.684Z,50.50
2019-04-20T21:48:51.413Z,51.50
2019-04-20T21:57:51.583Z,51.60
2019-04-20T22:07:14.413Z,53.00
2019-04-20T22:09:49.192Z,52.90
2019-04-20T22:12:15.978Z,52.60
2019-04-20T22:14:49.676Z,53.70
